sensor_id;sensor_type;location;lat;lon;timestamp;pressure;altitude;pressure_sealevel;temperature;humidity
27805;BME280;15183;51.350;11.102;2023-05-01T00:00:19;100500.50;;;10.33;51.88
27805;BME280;15183;51.350;11.102;2023-05-01T00:02:46;100471.59;;;10.18;52.15
27805;BME280;15183;51.350;11.102;2023-05-01T00:05:12;100493.19;;;10.28;52.38
27805;BME280;15183;51.350;11.102;2023-05-01T00:07:39;100477.91;;;10.17;51.98
27805;BME280;15183;51.350;11.102;2023-05-01T00:10:06;100461.03;;;9.98;51.96
27805;BME280;15183;51.350;11.102;2023-05-01T00:12:32;100422.00;;;9.66;52.19
27805;BME280;15183;51.350;11.102;2023-05-01T00:14:59;100483.84;;;10.06;52.43
27805;BME280;15183;51.350;11.102;2023-05-01T00:17:25;100461.47;;;9.88;52.30
27805;BME280;15183;51.350;11.102;2023-05-01T00:19:53;100467.16;;;9.98;52.50
27805;BME280;15183;51.350;11.102;2023-05-01T00:22:19;100457.78;;;9.96;52.19
27805;BME280;15183;51.350;11.102;2023-05-01T00:24:45;100461.25;;;9.96;52.06
27805;BME280;15183;51.350;11.102;2023-05-01T00:27:14;100474.69;;;9.95;52.09
27805;BME280;15183;51.350;11.102;2023-05-01T00:29:40;100467.56;;;9.89;52.42
27805;BME280;15183;51.350;11.102;2023-05-01T00:32:07;100465.94;;;9.88;52.60
27805;BME280;15183;51.350;11.102;2023-05-01T00:34:33;100392.06;;;9.46;52.45
27805;BME280;15183;51.350;11.102;2023-05-01T00:37:00;100452.94;;;9.86;52.62
27805;BME280;15183;51.350;11.102;2023-05-01T00:39:26;100448.44;;;9.80;52.68
27805;BME280;15183;51.350;11.102;2023-05-01T00:41:53;100448.03;;;9.83;52.54
27805;BME280;15183;51.350;11.102;2023-05-01T00:44:20;100450.66;;;9.83;52.14
27805;BME280;15183;51.350;11.102;2023-05-01T00:46:46;100429.72;;;9.75;52.26
27805;BME280;15183;51.350;11.102;2023-05-01T00:49:12;100426.47;;;9.73;52.42
27805;BME280;15183;51.350;11.102;2023-05-01T00:51:39;100439.69;;;9.73;52.40
27805;BME280;15183;51.350;11.102;2023-05-01T00:54:06;100433.19;;;9.62;52.33
27805;BME280;15183;51.350;11.102;2023-05-01T00:56:32;100434.59;;;9.58;52.88
27805;BME280;15183;51.350;11.102;2023-05-01T00:58:59;100438.28;;;9.63;52.55
27805;BME280;15183;51.350;11.102;2023-05-01T01:01:26;100434.81;;;9.63;52.73
27805;BME280;15183;51.350;11.102;2023-05-01T01:03:53;100418.53;;;9.52;53.12
27805;BME280;15183;51.350;11.102;2023-05-01T01:06:42;100430.53;;;9.68;52.54
27805;BME280;15183;51.350;11.102;2023-05-01T01:12:30;100419.16;;;9.54;53.11
27805;BME280;15183;51.350;11.102;2023-05-01T01:17:56;100425.69;;;9.52;53.25
27805;BME280;15183;51.350;11.102;2023-05-01T01:20:54;100407.13;;;9.38;53.37
27805;BME280;15183;51.350;11.102;2023-05-01T01:27:12;100407.34;;;9.44;52.78
27805;BME280;15183;51.350;11.102;2023-05-01T01:30:10;100404.91;;;9.35;53.14
27805;BME280;15183;51.350;11.102;2023-05-01T01:35:45;100387.63;;;9.26;53.28
27805;BME280;15183;51.350;11.102;2023-05-01T01:38:18;100387.41;;;9.34;53.41
27805;BME280;15183;51.350;11.102;2023-05-01T01:41:01;100395.13;;;9.43;53.20
27805;BME280;15183;51.350;11.102;2023-05-01T01:43:37;100393.31;;;9.36;53.34
27805;BME280;15183;51.350;11.102;2023-05-01T01:46:06;100382.94;;;9.35;53.22
27805;BME280;15183;51.350;11.102;2023-05-01T01:48:41;100387.00;;;9.37;53.19
27805;BME280;15183;51.350;11.102;2023-05-01T01:51:13;100388.44;;;9.33;53.19
27805;BME280;15183;51.350;11.102;2023-05-01T01:53:47;100365.44;;;9.07;53.01
27805;BME280;15183;51.350;11.102;2023-05-01T01:56:17;100359.94;;;8.95;53.58
27805;BME280;15183;51.350;11.102;2023-05-01T01:58:45;100376.19;;;9.05;53.59
27805;BME280;15183;51.350;11.102;2023-05-01T02:01:14;100378.44;;;9.08;53.51
27805;BME280;15183;51.350;11.102;2023-05-01T02:03:43;100375.00;;;9.15;53.90
27805;BME280;15183;51.350;11.102;2023-05-01T02:06:12;100358.31;;;9.07;53.56
27805;BME280;15183;51.350;11.102;2023-05-01T02:08:40;100341.03;;;8.98;53.53
27805;BME280;15183;51.350;11.102;2023-05-01T02:11:08;100352.25;;;9.14;53.50
27805;BME280;15183;51.350;11.102;2023-05-01T02:13:37;100337.16;;;9.07;53.51
27805;BME280;15183;51.350;11.102;2023-05-01T02:16:05;100353.66;;;9.09;53.55
27805;BME280;15183;51.350;11.102;2023-05-01T02:18:32;100345.72;;;9.09;53.76
27805;BME280;15183;51.350;11.102;2023-05-01T02:21:00;100342.25;;;9.09;53.65
27805;BME280;15183;51.350;11.102;2023-05-01T02:23:28;100354.44;;;9.03;53.50
27805;BME280;15183;51.350;11.102;2023-05-01T02:25:56;100358.13;;;8.95;53.64
27805;BME280;15183;51.350;11.102;2023-05-01T02:28:27;100354.63;;;8.88;53.38
27805;BME280;15183;51.350;11.102;2023-05-01T02:30:55;100331.84;;;8.67;53.60
27805;BME280;15183;51.350;11.102;2023-05-01T02:33:22;100337.75;;;8.62;53.88
27805;BME280;15183;51.350;11.102;2023-05-01T02:35:49;100324.44;;;8.49;53.96
27805;BME280;15183;51.350;11.102;2023-05-01T02:38:16;100327.16;;;8.56;53.96
27805;BME280;15183;51.350;11.102;2023-05-01T02:40:56;100326.97;;;8.64;54.46
27805;BME280;15183;51.350;11.102;2023-05-01T02:43:25;100333.91;;;8.78;54.38
27805;BME280;15183;51.350;11.102;2023-05-01T02:45:53;100309.53;;;8.76;54.23
27805;BME280;15183;51.350;11.102;2023-05-01T02:48:26;100327.81;;;8.98;54.25
27805;BME280;15183;51.350;11.102;2023-05-01T02:50:54;100318.66;;;8.94;53.80
27805;BME280;15183;51.350;11.102;2023-05-01T02:53:21;100317.44;;;8.90;53.61
27805;BME280;15183;51.350;11.102;2023-05-01T02:55:49;100311.53;;;8.81;53.88
27805;BME280;15183;51.350;11.102;2023-05-01T02:58:17;100298.50;;;8.66;53.64
27805;BME280;15183;51.350;11.102;2023-05-01T03:00:44;100310.50;;;8.62;54.15
27805;BME280;15183;51.350;11.102;2023-05-01T03:03:11;100291.78;;;8.50;54.13
27805;BME280;15183;51.350;11.102;2023-05-01T03:05:38;100303.81;;;8.59;54.67
27805;BME280;15183;51.350;11.102;2023-05-01T03:08:05;100296.28;;;8.56;54.48
27805;BME280;15183;51.350;11.102;2023-05-01T03:10:33;100288.97;;;8.58;54.39
27805;BME280;15183;51.350;11.102;2023-05-01T03:12:59;100297.31;;;8.68;54.63
27805;BME280;15183;51.350;11.102;2023-05-01T03:15:26;100294.47;;;8.77;54.49
27805;BME280;15183;51.350;11.102;2023-05-01T03:17:52;100284.72;;;8.77;54.64
27805;BME280;15183;51.350;11.102;2023-05-01T03:20:19;100278.41;;;8.72;54.61
27805;BME280;15183;51.350;11.102;2023-05-01T03:22:45;100289.00;;;8.78;54.68
27805;BME280;15183;51.350;11.102;2023-05-01T03:25:11;100280.22;;;8.71;54.40
27805;BME280;15183;51.350;11.102;2023-05-01T03:27:38;100296.72;;;8.73;54.34
27805;BME280;15183;51.350;11.102;2023-05-01T03:30:05;100285.50;;;8.58;54.48
27805;BME280;15183;51.350;11.102;2023-05-01T03:32:32;100284.03;;;8.42;54.58
27805;BME280;15183;51.350;11.102;2023-05-01T03:34:58;100281.38;;;8.35;54.63
27805;BME280;15183;51.350;11.102;2023-05-01T03:37:25;100278.75;;;8.42;54.50
27805;BME280;15183;51.350;11.102;2023-05-01T03:39:51;100281.66;;;8.53;54.80
27805;BME280;15183;51.350;11.102;2023-05-01T03:42:17;100276.13;;;8.48;54.88
27805;BME280;15183;51.350;11.102;2023-05-01T03:44:44;100272.72;;;8.54;54.62
27805;BME280;15183;51.350;11.102;2023-05-01T03:47:11;100278.22;;;8.66;54.67
27805;BME280;15183;51.350;11.102;2023-05-01T03:49:37;100268.66;;;8.65;54.79
27805;BME280;15183;51.350;11.102;2023-05-01T03:52:03;100274.16;;;8.77;54.44
27805;BME280;15183;51.350;11.102;2023-05-01T03:54:30;100279.22;;;8.79;54.48
27805;BME280;15183;51.350;11.102;2023-05-01T03:56:56;100260.34;;;8.75;54.71
27805;BME280;15183;51.350;11.102;2023-05-01T03:59:24;100260.53;;;8.74;54.46
27805;BME280;15183;51.350;11.102;2023-05-01T04:01:50;100256.88;;;8.61;54.11
27805;BME280;15183;51.350;11.102;2023-05-01T04:04:17;100252.00;;;8.58;54.74
27805;BME280;15183;51.350;11.102;2023-05-01T04:06:43;100248.31;;;8.52;54.77
27805;BME280;15183;51.350;11.102;2023-05-01T04:09:10;100264.59;;;8.69;54.92
27805;BME280;15183;51.350;11.102;2023-05-01T04:11:36;100249.38;;;8.78;54.92
27805;BME280;15183;51.350;11.102;2023-05-01T04:14:02;100246.31;;;9.02;54.92
27805;BME280;15183;51.350;11.102;2023-05-01T04:16:29;100243.63;;;9.22;54.53
27805;BME280;15183;51.350;11.102;2023-05-01T04:18:56;100230.00;;;9.25;54.67
27805;BME280;15183;51.350;11.102;2023-05-01T04:21:23;100233.22;;;9.40;54.63
27805;BME280;15183;51.350;11.102;2023-05-01T04:23:49;100238.50;;;9.47;54.14
27805;BME280;15183;51.350;11.102;2023-05-01T04:26:16;100228.28;;;9.58;54.37
27805;BME280;15183;51.350;11.102;2023-05-01T04:28:42;100250.00;;;9.73;54.22
27805;BME280;15183;51.350;11.102;2023-05-01T04:31:09;100240.41;;;9.79;54.34
27805;BME280;15183;51.350;11.102;2023-05-01T04:33:35;100246.28;;;9.81;54.30
27805;BME280;15183;51.350;11.102;2023-05-01T04:36:02;100244.47;;;9.88;54.05
27805;BME280;15183;51.350;11.102;2023-05-01T04:38:28;100228.75;;;9.93;54.23
27805;BME280;15183;51.350;11.102;2023-05-01T04:40:55;100227.66;;;10.08;54.19
27805;BME280;15183;51.350;11.102;2023-05-01T04:43:21;100232.84;;;10.21;53.90
27805;BME280;15183;51.350;11.102;2023-05-01T04:45:48;100176.63;;;9.94;53.69
27805;BME280;15183;51.350;11.102;2023-05-01T04:48:14;100234.19;;;10.44;53.75
27805;BME280;15183;51.350;11.102;2023-05-01T04:50:41;100239.28;;;10.39;53.82
27805;BME280;15183;51.350;11.102;2023-05-01T04:53:07;100230.59;;;10.25;53.88
27805;BME280;15183;51.350;11.102;2023-05-01T04:55:34;100228.59;;;10.20;54.02
27805;BME280;15183;51.350;11.102;2023-05-01T04:58:01;100237.91;;;10.30;54.06
27805;BME280;15183;51.350;11.102;2023-05-01T05:00:30;100240.56;;;10.30;53.72
27805;BME280;15183;51.350;11.102;2023-05-01T05:02:56;100235.69;;;10.26;53.54
27805;BME280;15183;51.350;11.102;2023-05-01T05:05:23;100236.06;;;10.30;54.03
27805;BME280;15183;51.350;11.102;2023-05-01T05:07:49;100235.88;;;10.32;54.23
27805;BME280;15183;51.350;11.102;2023-05-01T05:10:15;100240.50;;;10.43;53.88
27805;BME280;15183;51.350;11.102;2023-05-01T05:12:42;100244.91;;;10.56;54.06
27805;BME280;15183;51.350;11.102;2023-05-01T05:15:09;100200.94;;;10.48;54.04
27805;BME280;15183;51.350;11.102;2023-05-01T05:17:35;100234.47;;;10.86;53.77
27805;BME280;15183;51.350;11.102;2023-05-01T05:20:01;100223.13;;;10.98;54.02
27805;BME280;15183;51.350;11.102;2023-05-01T05:22:28;100230.78;;;11.32;54.41
27805;BME280;15183;51.350;11.102;2023-05-01T05:24:54;100202.47;;;11.44;53.96
27805;BME280;15183;51.350;11.102;2023-05-01T05:27:21;100246.78;;;11.93;54.30
27805;BME280;15183;51.350;11.102;2023-05-01T05:29:47;100241.03;;;12.14;53.99
27805;BME280;15183;51.350;11.102;2023-05-01T05:32:15;100235.69;;;12.33;54.03
27805;BME280;15183;51.350;11.102;2023-05-01T05:34:41;100242.63;;;12.58;54.08
27805;BME280;15183;51.350;11.102;2023-05-01T05:37:08;100222.31;;;12.64;54.18
27805;BME280;15183;51.350;11.102;2023-05-01T05:39:34;100233.91;;;12.93;54.22
27805;BME280;15183;51.350;11.102;2023-05-01T05:42:00;100240.59;;;13.20;54.18
27805;BME280;15183;51.350;11.102;2023-05-01T05:44:28;100214.22;;;13.30;53.92
27805;BME280;15183;51.350;11.102;2023-05-01T05:46:56;100241.91;;;13.70;53.60
27805;BME280;15183;51.350;11.102;2023-05-01T05:49:23;100242.56;;;13.89;53.25
27805;BME280;15183;51.350;11.102;2023-05-01T05:51:49;100219.16;;;13.91;53.41
27805;BME280;15183;51.350;11.102;2023-05-01T05:54:15;100240.78;;;14.24;53.03
27805;BME280;15183;51.350;11.102;2023-05-01T05:56:42;100233.13;;;14.44;53.10
27805;BME280;15183;51.350;11.102;2023-05-01T05:59:08;100235.41;;;14.70;52.79
27805;BME280;15183;51.350;11.102;2023-05-01T06:01:35;100211.91;;;14.84;52.78
27805;BME280;15183;51.350;11.102;2023-05-01T06:04:03;100231.41;;;15.24;52.43
27805;BME280;15183;51.350;11.102;2023-05-01T06:06:29;100232.84;;;15.54;52.22
27805;BME280;15183;51.350;11.102;2023-05-01T06:08:56;100235.63;;;15.86;52.19
27805;BME280;15183;51.350;11.102;2023-05-01T06:11:23;100229.28;;;16.20;51.66
27805;BME280;15183;51.350;11.102;2023-05-01T06:13:49;100224.94;;;16.41;51.29
27805;BME280;15183;51.350;11.102;2023-05-01T06:16:15;100214.13;;;16.63;50.93
27805;BME280;15183;51.350;11.102;2023-05-01T06:18:42;100185.00;;;16.67;50.80
27805;BME280;15183;51.350;11.102;2023-05-01T06:21:08;100198.88;;;17.02;50.23
27805;BME280;15183;51.350;11.102;2023-05-01T06:23:35;100213.75;;;17.30;49.75
27805;BME280;15183;51.350;11.102;2023-05-01T06:26:01;100216.78;;;17.44;49.92
27805;BME280;15183;51.350;11.102;2023-05-01T06:28:27;100212.50;;;17.54;49.09
27805;BME280;15183;51.350;11.102;2023-05-01T06:30:54;100151.69;;;17.49;49.14
27805;BME280;15183;51.350;11.102;2023-05-01T06:33:21;100201.41;;;18.08;48.36
27805;BME280;15183;51.350;11.102;2023-05-01T06:35:47;100206.00;;;18.39;48.11
27805;BME280;15183;51.350;11.102;2023-05-01T06:38:14;100194.16;;;18.56;47.02
27805;BME280;15183;51.350;11.102;2023-05-01T06:40:40;100199.22;;;18.78;47.27
27805;BME280;15183;51.350;11.102;2023-05-01T06:43:07;100189.56;;;18.98;46.94
27805;BME280;15183;51.350;11.102;2023-05-01T06:45:33;100178.47;;;19.20;46.54
27805;BME280;15183;51.350;11.102;2023-05-01T06:47:59;100194.75;;;19.44;45.80
27805;BME280;15183;51.350;11.102;2023-05-01T06:50:26;100194.94;;;19.58;45.76
27805;BME280;15183;51.350;11.102;2023-05-01T06:52:53;100192.47;;;19.72;45.69
27805;BME280;15183;51.350;11.102;2023-05-01T06:55:20;100180.53;;;19.84;45.00
27805;BME280;15183;51.350;11.102;2023-05-01T06:57:46;100183.97;;;20.00;44.75
27805;BME280;15183;51.350;11.102;2023-05-01T07:00:14;100187.88;;;20.18;44.05
27805;BME280;15183;51.350;11.102;2023-05-01T07:02:42;100134.94;;;20.08;44.38
27805;BME280;15183;51.350;11.102;2023-05-01T07:05:09;100182.13;;;20.59;43.60
27805;BME280;15183;51.350;11.102;2023-05-01T07:07:36;100178.16;;;20.76;43.14
27805;BME280;15183;51.350;11.102;2023-05-01T07:10:02;100170.88;;;20.81;43.04
27805;BME280;15183;51.350;11.102;2023-05-01T07:12:29;100168.94;;;20.87;43.04
27805;BME280;15183;51.350;11.102;2023-05-01T07:14:55;100166.97;;;20.93;42.84
27805;BME280;15183;51.350;11.102;2023-05-01T07:17:22;100161.25;;;21.00;42.76
27805;BME280;15183;51.350;11.102;2023-05-01T07:19:48;100170.88;;;21.06;42.27
27805;BME280;15183;51.350;11.102;2023-05-01T07:22:15;100151.94;;;21.11;42.17
27805;BME280;15183;51.350;11.102;2023-05-01T07:24:41;100150.22;;;21.20;42.28
27805;BME280;15183;51.350;11.102;2023-05-01T07:27:08;100164.78;;;21.38;42.61
27805;BME280;15183;51.350;11.102;2023-05-01T07:29:39;100149.66;;;21.43;41.89
27805;BME280;15183;51.350;11.102;2023-05-01T07:32:05;100161.25;;;21.62;41.44
27805;BME280;15183;51.350;11.102;2023-05-01T07:34:32;100150.13;;;21.69;41.65
27805;BME280;15183;51.350;11.102;2023-05-01T07:36:58;100143.63;;;21.89;41.05
27805;BME280;15183;51.350;11.102;2023-05-01T07:39:25;100136.28;;;22.09;40.39
27805;BME280;15183;51.350;11.102;2023-05-01T07:41:51;100141.72;;;22.23;40.06
27805;BME280;15183;51.350;11.102;2023-05-01T07:44:18;100139.34;;;22.35;40.20
27805;BME280;15183;51.350;11.102;2023-05-01T07:46:44;100135.47;;;22.41;39.92
27805;BME280;15183;51.350;11.102;2023-05-01T07:49:11;100132.38;;;22.48;40.30
27805;BME280;15183;51.350;11.102;2023-05-01T07:51:37;100107.78;;;22.50;40.06
27805;BME280;15183;51.350;11.102;2023-05-01T07:54:03;100130.19;;;22.78;40.11
27805;BME280;15183;51.350;11.102;2023-05-01T07:56:30;100111.19;;;22.83;39.28
27805;BME280;15183;51.350;11.102;2023-05-01T07:58:56;100126.59;;;23.11;38.97
27805;BME280;15183;51.350;11.102;2023-05-01T08:01:23;100122.97;;;23.30;38.58
27805;BME280;15183;51.350;11.102;2023-05-01T08:03:49;100128.50;;;23.47;38.34
27805;BME280;15183;51.350;11.102;2023-05-01T08:06:16;100097.84;;;23.52;38.92
27805;BME280;15183;51.350;11.102;2023-05-01T08:08:43;100111.38;;;23.75;38.01
27805;BME280;15183;51.350;11.102;2023-05-01T08:11:10;100104.59;;;23.86;38.21
27805;BME280;15183;51.350;11.102;2023-05-01T08:13:37;100116.06;;;24.06;37.68
27805;BME280;15183;51.350;11.102;2023-05-01T08:16:04;100097.44;;;24.04;37.27
27805;BME280;15183;51.350;11.102;2023-05-01T08:18:30;100109.72;;;24.10;37.05
27805;BME280;15183;51.350;11.102;2023-05-01T08:20:56;100093.91;;;24.04;36.60
27805;BME280;15183;51.350;11.102;2023-05-01T08:23:23;100109.59;;;24.16;36.18
27805;BME280;15183;51.350;11.102;2023-05-01T08:25:51;100104.78;;;24.12;36.26
27805;BME280;15183;51.350;11.102;2023-05-01T08:28:18;100098.41;;;24.08;36.70
27805;BME280;15183;51.350;11.102;2023-05-01T08:30:48;100089.94;;;24.01;36.11
27805;BME280;15183;51.350;11.102;2023-05-01T08:33:14;100082.41;;;23.98;35.61
27805;BME280;15183;51.350;11.102;2023-05-01T08:35:41;100095.69;;;24.08;35.71
27805;BME280;15183;51.350;11.102;2023-05-01T08:38:07;100092.50;;;24.06;35.83
27805;BME280;15183;51.350;11.102;2023-05-01T08:40:36;100076.16;;;23.97;35.58
27805;BME280;15183;51.350;11.102;2023-05-01T08:43:03;100080.38;;;24.04;36.50
27805;BME280;15183;51.350;11.102;2023-05-01T08:45:33;100071.13;;;24.05;35.71
27805;BME280;15183;51.350;11.102;2023-05-01T08:48:06;100060.75;;;23.98;35.45
27805;BME280;15183;51.350;11.102;2023-05-01T08:50:35;100075.38;;;23.97;34.77
27805;BME280;15183;51.350;11.102;2023-05-01T08:53:05;100063.59;;;23.93;35.27
27805;BME280;15183;51.350;11.102;2023-05-01T08:55:34;100051.94;;;23.92;35.31
27805;BME280;15183;51.350;11.102;2023-05-01T08:58:03;100061.13;;;24.05;35.46
27805;BME280;15183;51.350;11.102;2023-05-01T09:00:33;100060.34;;;24.13;35.51
27805;BME280;15183;51.350;11.102;2023-05-01T09:03:00;100054.31;;;24.17;34.76
27805;BME280;15183;51.350;11.102;2023-05-01T09:05:31;100046.81;;;24.13;35.00
27805;BME280;15183;51.350;11.102;2023-05-01T09:07:59;100066.00;;;24.26;34.80
27805;BME280;15183;51.350;11.102;2023-05-01T09:10:25;100046.19;;;24.17;34.40
27805;BME280;15183;51.350;11.102;2023-05-01T09:12:59;100059.34;;;24.32;34.31
27805;BME280;15183;51.350;11.102;2023-05-01T09:15:27;100043.84;;;24.24;33.77
27805;BME280;15183;51.350;11.102;2023-05-01T09:17:55;100055.63;;;24.19;33.58
27805;BME280;15183;51.350;11.102;2023-05-01T09:20:22;100054.03;;;24.18;33.69
27805;BME280;15183;51.350;11.102;2023-05-01T09:22:49;100052.72;;;24.16;33.95
27805;BME280;15183;51.350;11.102;2023-05-01T09:25:15;100047.78;;;24.18;33.22
27805;BME280;15183;51.350;11.102;2023-05-01T09:27:43;100048.94;;;24.25;33.60
27805;BME280;15183;51.350;11.102;2023-05-01T09:30:36;100023.44;;;24.18;34.11
27805;BME280;15183;51.350;11.102;2023-05-01T09:33:14;100034.19;;;24.40;33.46
27805;BME280;15183;51.350;11.102;2023-05-01T09:35:55;100030.84;;;24.43;33.36
27805;BME280;15183;51.350;11.102;2023-05-01T09:38:25;100029.59;;;24.50;33.28
27805;BME280;15183;51.350;11.102;2023-05-01T09:40:53;100026.72;;;24.55;33.89
27805;BME280;15183;51.350;11.102;2023-05-01T09:43:28;100012.69;;;24.53;33.53
27805;BME280;15183;51.350;11.102;2023-05-01T09:46:09;100024.69;;;24.69;33.33
27805;BME280;15183;51.350;11.102;2023-05-01T09:48:37;100031.25;;;24.77;33.56
27805;BME280;15183;51.350;11.102;2023-05-01T09:51:21;100019.78;;;24.89;34.18
27805;BME280;15183;51.350;11.102;2023-05-01T09:53:48;99999.69;;;24.90;33.71
27805;BME280;15183;51.350;11.102;2023-05-01T09:56:15;99964.59;;;24.67;33.03
27805;BME280;15183;51.350;11.102;2023-05-01T09:58:42;100010.56;;;25.08;33.52
27805;BME280;15183;51.350;11.102;2023-05-01T10:01:09;99996.06;;;25.04;33.13
27805;BME280;15183;51.350;11.102;2023-05-01T10:03:36;99979.94;;;24.98;32.69
27805;BME280;15183;51.350;11.102;2023-05-01T10:06:03;99996.53;;;25.06;32.45
27805;BME280;15183;51.350;11.102;2023-05-01T10:08:58;99995.09;;;24.91;32.71
27805;BME280;15183;51.350;11.102;2023-05-01T10:11:25;99987.44;;;24.84;33.04
27805;BME280;15183;51.350;11.102;2023-05-01T10:14:08;99968.25;;;24.63;32.98
27805;BME280;15183;51.350;11.102;2023-05-01T10:16:37;99986.47;;;24.80;33.60
27805;BME280;15183;51.350;11.102;2023-05-01T10:19:04;99987.28;;;24.89;33.24
27805;BME280;15183;51.350;11.102;2023-05-01T10:21:31;99982.63;;;24.98;32.76
27805;BME280;15183;51.350;11.102;2023-05-01T10:24:00;99987.59;;;25.05;32.63
27805;BME280;15183;51.350;11.102;2023-05-01T10:26:28;99972.28;;;25.09;32.92
27805;BME280;15183;51.350;11.102;2023-05-01T10:28:55;99963.31;;;25.18;33.41
27805;BME280;15183;51.350;11.102;2023-05-01T10:31:24;99960.28;;;25.28;33.12
27805;BME280;15183;51.350;11.102;2023-05-01T10:33:54;99950.69;;;25.39;32.73
27805;BME280;15183;51.350;11.102;2023-05-01T10:36:46;99957.06;;;25.52;32.75
27805;BME280;15183;51.350;11.102;2023-05-01T10:39:35;99971.03;;;25.72;33.04
27805;BME280;15183;51.350;11.102;2023-05-01T10:42:03;99970.34;;;25.93;32.67
27805;BME280;15183;51.350;11.102;2023-05-01T10:44:31;99946.22;;;25.91;32.41
27805;BME280;15183;51.350;11.102;2023-05-01T10:47:04;99955.06;;;26.18;32.58
27805;BME280;15183;51.350;11.102;2023-05-01T10:50:04;99951.38;;;26.23;32.78
27805;BME280;15183;51.350;11.102;2023-05-01T10:55:44;99943.94;;;26.32;31.72
27805;BME280;15183;51.350;11.102;2023-05-01T10:58:12;99930.22;;;26.28;31.74
27805;BME280;15183;51.350;11.102;2023-05-01T11:00:40;99937.44;;;26.24;31.46
27805;BME280;15183;51.350;11.102;2023-05-01T11:08:34;99921.81;;;26.12;31.65
27805;BME280;15183;51.350;11.102;2023-05-01T11:14:01;99915.53;;;25.99;30.80
27805;BME280;15183;51.350;11.102;2023-05-01T11:19:05;99909.38;;;26.11;31.44
27805;BME280;15183;51.350;11.102;2023-05-01T11:21:34;99906.78;;;26.24;31.60
27805;BME280;15183;51.350;11.102;2023-05-01T11:24:01;99889.81;;;26.27;30.88
27805;BME280;15183;51.350;11.102;2023-05-01T11:26:29;99897.38;;;26.42;30.49
27805;BME280;15183;51.350;11.102;2023-05-01T11:29:00;99908.44;;;26.58;30.39
27805;BME280;15183;51.350;11.102;2023-05-01T11:31:27;99895.94;;;26.79;30.81
27805;BME280;15183;51.350;11.102;2023-05-01T11:33:58;99889.19;;;26.85;30.59
27805;BME280;15183;51.350;11.102;2023-05-01T11:36:26;99899.09;;;27.02;30.17
27805;BME280;15183;51.350;11.102;2023-05-01T11:38:55;99877.63;;;27.09;30.66
27805;BME280;15183;51.350;11.102;2023-05-01T11:41:23;99866.53;;;27.14;30.19
27805;BME280;15183;51.350;11.102;2023-05-01T11:43:57;99881.25;;;27.26;30.19
27805;BME280;15183;51.350;11.102;2023-05-01T11:46:29;99861.53;;;27.16;29.91
27805;BME280;15183;51.350;11.102;2023-05-01T11:49:00;99870.16;;;27.19;29.46
27805;BME280;15183;51.350;11.102;2023-05-01T11:51:28;99861.03;;;27.02;28.93
27805;BME280;15183;51.350;11.102;2023-05-01T11:54:03;99880.88;;;27.02;29.18
27805;BME280;15183;51.350;11.102;2023-05-01T11:56:31;99862.28;;;26.92;30.26
27805;BME280;15183;51.350;11.102;2023-05-01T11:59:07;99857.84;;;26.87;29.11
27805;BME280;15183;51.350;11.102;2023-05-01T12:01:36;99855.16;;;26.79;30.04
27805;BME280;15183;51.350;11.102;2023-05-01T12:04:03;99868.84;;;26.91;29.75
27805;BME280;15183;51.350;11.102;2023-05-01T12:06:43;99869.66;;;27.04;29.87
27805;BME280;15183;51.350;11.102;2023-05-01T12:09:18;99857.78;;;27.09;30.17
27805;BME280;15183;51.350;11.102;2023-05-01T12:11:46;99850.97;;;27.02;30.60
27805;BME280;15183;51.350;11.102;2023-05-01T12:14:14;99858.91;;;27.08;30.02
27805;BME280;15183;51.350;11.102;2023-05-01T12:16:42;99856.78;;;27.13;30.36
27805;BME280;15183;51.350;11.102;2023-05-01T12:19:11;99814.03;;;27.01;30.25
27805;BME280;15183;51.350;11.102;2023-05-01T12:21:37;99857.59;;;27.39;29.26
27805;BME280;15183;51.350;11.102;2023-05-01T12:24:15;99868.69;;;27.34;29.11
27805;BME280;15183;51.350;11.102;2023-05-01T12:26:44;99858.69;;;27.25;29.46
27805;BME280;15183;51.350;11.102;2023-05-01T12:29:11;99843.19;;;27.26;29.43
27805;BME280;15183;51.350;11.102;2023-05-01T12:31:48;99853.97;;;27.35;29.45
27805;BME280;15183;51.350;11.102;2023-05-01T12:34:17;99862.13;;;27.47;28.63
27805;BME280;15183;51.350;11.102;2023-05-01T12:36:52;99855.53;;;27.48;29.14
27805;BME280;15183;51.350;11.102;2023-05-01T12:39:20;99851.16;;;27.56;29.08
27805;BME280;15183;51.350;11.102;2023-05-01T12:41:48;99844.47;;;27.53;28.53
27805;BME280;15183;51.350;11.102;2023-05-01T12:44:27;99846.25;;;27.62;29.17
27805;BME280;15183;51.350;11.102;2023-05-01T12:49:26;99857.59;;;27.88;29.62
27805;BME280;15183;51.350;11.102;2023-05-01T12:51:55;99838.66;;;27.92;29.90
27805;BME280;15183;51.350;11.102;2023-05-01T12:54:43;99841.91;;;28.10;29.72
27805;BME280;15183;51.350;11.102;2023-05-01T12:57:14;99842.34;;;28.25;29.23
27805;BME280;15183;51.350;11.102;2023-05-01T12:59:43;99838.56;;;28.29;28.43
27805;BME280;15183;51.350;11.102;2023-05-01T13:02:12;99842.38;;;28.41;28.81
27805;BME280;15183;51.350;11.102;2023-05-01T13:04:42;99825.69;;;28.42;28.21
27805;BME280;15183;51.350;11.102;2023-05-01T13:07:17;99814.81;;;28.42;28.59
27805;BME280;15183;51.350;11.102;2023-05-01T13:09:58;99816.16;;;28.36;28.73
27805;BME280;15183;51.350;11.102;2023-05-01T13:12:26;99828.50;;;28.46;28.35
27805;BME280;15183;51.350;11.102;2023-05-01T13:14:54;99807.22;;;28.36;28.13
27805;BME280;15183;51.350;11.102;2023-05-01T13:17:31;99828.91;;;28.32;28.27
27805;BME280;15183;51.350;11.102;2023-05-01T13:20:02;99822.56;;;28.28;28.70
27805;BME280;15183;51.350;11.102;2023-05-01T13:22:37;99827.97;;;28.40;28.74